sensor_id;sensor_type;location;lat;lon;timestamp;temperature;humidity
827;DHT22;395;48.132;11.608;2023-02-03T00:01:14;6.40;10.40
827;DHT22;395;48.132;11.608;2023-02-03T00:03:41;6.30;10.20
827;DHT22;395;48.132;11.608;2023-02-03T00:06:06;6.30;9.30
827;DHT22;395;48.132;11.608;2023-02-03T00:08:32;6.30;9.30
827;DHT22;395;48.132;11.608;2023-02-03T00:10:59;6.30;9.10
827;DHT22;395;48.132;11.608;2023-02-03T00:13:25;6.30;8.80
827;DHT22;395;48.132;11.608;2023-02-03T00:15:54;6.20;9.20
827;DHT22;395;48.132;11.608;2023-02-03T00:18:19;6.20;8.60
827;DHT22;395;48.132;11.608;2023-02-03T00:20:45;6.30;8.80
827;DHT22;395;48.132;11.608;2023-02-03T00:23:11;6.30;8.70
827;DHT22;395;48.132;11.608;2023-02-03T00:25:37;6.20;9.50
827;DHT22;395;48.132;11.608;2023-02-03T00:28:04;6.30;9.00
827;DHT22;395;48.132;11.608;2023-02-03T00:30:30;6.30;7.80
827;DHT22;395;48.132;11.608;2023-02-03T00:32:56;6.30;7.90
827;DHT22;395;48.132;11.608;2023-02-03T00:35:21;6.40;7.70
827;DHT22;395;48.132;11.608;2023-02-03T00:37:54;6.30;7.40
827;DHT22;395;48.132;11.608;2023-02-03T00:40:22;6.30;7.50
827;DHT22;395;48.132;11.608;2023-02-03T00:42:48;6.30;7.70
827;DHT22;395;48.132;11.608;2023-02-03T00:45:14;6.30;7.80
827;DHT22;395;48.132;11.608;2023-02-03T00:47:40;6.30;7.20
827;DHT22;395;48.132;11.608;2023-02-03T00:50:07;6.40;7.40
827;DHT22;395;48.132;11.608;2023-02-03T00:52:32;6.40;7.40
827;DHT22;395;48.132;11.608;2023-02-03T00:54:58;6.40;6.70
827;DHT22;395;48.132;11.608;2023-02-03T00:57:24;6.40;6.70
827;DHT22;395;48.132;11.608;2023-02-03T00:59:50;6.50;6.60
827;DHT22;395;48.132;11.608;2023-02-03T01:02:15;6.40;6.30
827;DHT22;395;48.132;11.608;2023-02-03T01:04:42;6.40;5.70
827;DHT22;395;48.132;11.608;2023-02-03T01:07:08;6.40;6.30
827;DHT22;395;48.132;11.608;2023-02-03T01:09:35;6.40;6.20
827;DHT22;395;48.132;11.608;2023-02-03T01:12:02;6.40;5.90
827;DHT22;395;48.132;11.608;2023-02-03T01:14:27;6.50;5.90
827;DHT22;395;48.132;11.608;2023-02-03T01:16:53;6.50;6.20
827;DHT22;395;48.132;11.608;2023-02-03T01:19:19;6.50;5.80
827;DHT22;395;48.132;11.608;2023-02-03T01:21:44;6.50;5.80
827;DHT22;395;48.132;11.608;2023-02-03T01:24:10;6.40;5.60
827;DHT22;395;48.132;11.608;2023-02-03T01:26:36;6.40;5.30
827;DHT22;395;48.132;11.608;2023-02-03T01:29:02;6.50;5.40
827;DHT22;395;48.132;11.608;2023-02-03T01:31:31;6.50;5.00
827;DHT22;395;48.132;11.608;2023-02-03T01:33:59;6.50;4.90
827;DHT22;395;48.132;11.608;2023-02-03T01:36:27;6.50;4.70
827;DHT22;395;48.132;11.608;2023-02-03T01:38:54;6.50;5.10
827;DHT22;395;48.132;11.608;2023-02-03T01:41:26;6.50;4.90
827;DHT22;395;48.132;11.608;2023-02-03T01:43:54;6.50;4.70
827;DHT22;395;48.132;11.608;2023-02-03T01:51:51;6.50;4.60
827;DHT22;395;48.132;11.608;2023-02-03T01:54:40;6.40;4.80
827;DHT22;395;48.132;11.608;2023-02-03T01:57:33;6.50;4.60
827;DHT22;395;48.132;11.608;2023-02-03T02:00:02;6.50;4.20
827;DHT22;395;48.132;11.608;2023-02-03T02:02:29;6.50;4.10
827;DHT22;395;48.132;11.608;2023-02-03T02:05:07;6.60;4.00
827;DHT22;395;48.132;11.608;2023-02-03T02:07:36;6.50;3.60
827;DHT22;395;48.132;11.608;2023-02-03T02:10:03;6.50;3.40
827;DHT22;395;48.132;11.608;2023-02-03T02:12:29;6.50;2.90
827;DHT22;395;48.132;11.608;2023-02-03T02:14:54;6.50;3.20
827;DHT22;395;48.132;11.608;2023-02-03T02:17:52;6.50;3.90
827;DHT22;395;48.132;11.608;2023-02-03T02:26:33;6.40;3.80
827;DHT22;395;48.132;11.608;2023-02-03T02:43:09;6.50;2.90
827;DHT22;395;48.132;11.608;2023-02-03T02:45:48;6.50;2.60
827;DHT22;395;48.132;11.608;2023-02-03T02:48:47;6.50;2.50
827;DHT22;395;48.132;11.608;2023-02-03T02:51:17;6.50;2.70
827;DHT22;395;48.132;11.608;2023-02-03T02:53:50;6.50;2.00
827;DHT22;395;48.132;11.608;2023-02-03T02:56:18;6.50;2.10
827;DHT22;395;48.132;11.608;2023-02-03T02:58:47;6.50;2.30
827;DHT22;395;48.132;11.608;2023-02-03T03:01:14;6.50;2.60
827;DHT22;395;48.132;11.608;2023-02-03T03:03:41;6.50;3.00
827;DHT22;395;48.132;11.608;2023-02-03T03:11:32;6.60;2.80
827;DHT22;395;48.132;11.608;2023-02-03T03:13:58;6.60;2.30
827;DHT22;395;48.132;11.608;2023-02-03T03:16:26;6.60;2.10
827;DHT22;395;48.132;11.608;2023-02-03T03:19:00;6.60;2.10
827;DHT22;395;48.132;11.608;2023-02-03T03:21:44;6.60;2.10
827;DHT22;395;48.132;11.608;2023-02-03T03:24:15;6.60;2.10
827;DHT22;395;48.132;11.608;2023-02-03T03:27:05;6.60;2.00
827;DHT22;395;48.132;11.608;2023-02-03T03:29:44;6.60;1.70
827;DHT22;395;48.132;11.608;2023-02-03T03:32:11;6.60;2.10
827;DHT22;395;48.132;11.608;2023-02-03T03:34:37;6.60;1.50
827;DHT22;395;48.132;11.608;2023-02-03T03:39:56;6.60;1.00
827;DHT22;395;48.132;11.608;2023-02-03T03:42:46;6.60;1.10
827;DHT22;395;48.132;11.608;2023-02-03T03:46:05;6.50;1.00
827;DHT22;395;48.132;11.608;2023-02-03T03:48:50;6.60;1.00
827;DHT22;395;48.132;11.608;2023-02-03T03:54:07;6.60;1.00
827;DHT22;395;48.132;11.608;2023-02-03T03:56:45;6.60;1.00
827;DHT22;395;48.132;11.608;2023-02-03T03:59:13;6.60;1.00
827;DHT22;395;48.132;11.608;2023-02-03T04:01:41;6.60;1.10
827;DHT22;395;48.132;11.608;2023-02-03T04:04:09;6.60;1.00
827;DHT22;395;48.132;11.608;2023-02-03T04:06:37;6.60;1.00
827;DHT22;395;48.132;11.608;2023-02-03T04:09:03;6.60;1.00
827;DHT22;395;48.132;11.608;2023-02-03T04:11:29;6.60;1.00
827;DHT22;395;48.132;11.608;2023-02-03T04:14:14;6.60;1.00
827;DHT22;395;48.132;11.608;2023-02-03T04:16:39;6.60;1.00
827;DHT22;395;48.132;11.608;2023-02-03T04:19:05;6.70;1.00
827;DHT22;395;48.132;11.608;2023-02-03T04:21:31;6.70;1.00
827;DHT22;395;48.132;11.608;2023-02-03T04:23:57;6.70;1.00
827;DHT22;395;48.132;11.608;2023-02-03T04:26:22;6.70;1.00
827;DHT22;395;48.132;11.608;2023-02-03T04:28:48;6.60;1.00
827;DHT22;395;48.132;11.608;2023-02-03T04:31:14;6.70;1.00
827;DHT22;395;48.132;11.608;2023-02-03T04:33:39;6.60;1.00
827;DHT22;395;48.132;11.608;2023-02-03T04:36:05;6.60;1.00
827;DHT22;395;48.132;11.608;2023-02-03T04:38:31;6.60;1.00
827;DHT22;395;48.132;11.608;2023-02-03T04:40:57;6.50;1.00
827;DHT22;395;48.132;11.608;2023-02-03T04:43:23;6.50;1.00
827;DHT22;395;48.132;11.608;2023-02-03T04:45:49;6.70;1.00
827;DHT22;395;48.132;11.608;2023-02-03T04:48:15;6.60;1.00
827;DHT22;395;48.132;11.608;2023-02-03T04:50:40;6.50;1.00
827;DHT22;395;48.132;11.608;2023-02-03T04:53:06;6.50;1.00
827;DHT22;395;48.132;11.608;2023-02-03T04:55:32;6.50;1.00
827;DHT22;395;48.132;11.608;2023-02-03T04:57:58;6.60;1.00
827;DHT22;395;48.132;11.608;2023-02-03T05:00:25;6.50;1.00
827;DHT22;395;48.132;11.608;2023-02-03T05:02:51;6.50;1.00
827;DHT22;395;48.132;11.608;2023-02-03T05:05:17;6.50;1.00
827;DHT22;395;48.132;11.608;2023-02-03T05:07:42;6.40;1.00
827;DHT22;395;48.132;11.608;2023-02-03T05:10:09;6.50;1.00
827;DHT22;395;48.132;11.608;2023-02-03T05:12:34;6.50;1.00
827;DHT22;395;48.132;11.608;2023-02-03T05:15:00;6.50;1.00
827;DHT22;395;48.132;11.608;2023-02-03T05:17:26;6.50;1.00
827;DHT22;395;48.132;11.608;2023-02-03T05:19:51;6.50;1.00
827;DHT22;395;48.132;11.608;2023-02-03T05:22:17;6.40;1.00
827;DHT22;395;48.132;11.608;2023-02-03T05:24:43;6.40;1.00
827;DHT22;395;48.132;11.608;2023-02-03T05:27:08;6.40;1.00
827;DHT22;395;48.132;11.608;2023-02-03T05:29:34;6.50;1.00
827;DHT22;395;48.132;11.608;2023-02-03T05:31:59;6.50;1.00
827;DHT22;395;48.132;11.608;2023-02-03T05:34:25;6.50;1.00
827;DHT22;395;48.132;11.608;2023-02-03T05:36:51;6.60;1.00
827;DHT22;395;48.132;11.608;2023-02-03T05:39:16;6.50;1.00
827;DHT22;395;48.132;11.608;2023-02-03T05:41:42;6.50;1.00
827;DHT22;395;48.132;11.608;2023-02-03T05:44:18;6.60;1.00
827;DHT22;395;48.132;11.608;2023-02-03T05:46:44;6.50;1.00
827;DHT22;395;48.132;11.608;2023-02-03T05:49:09;6.40;1.00
827;DHT22;395;48.132;11.608;2023-02-03T05:51:35;6.40;1.00
827;DHT22;395;48.132;11.608;2023-02-03T05:54:00;6.40;1.00
827;DHT22;395;48.132;11.608;2023-02-03T05:56:26;6.40;1.00
827;DHT22;395;48.132;11.608;2023-02-03T05:58:52;6.40;1.00
827;DHT22;395;48.132;11.608;2023-02-03T06:01:18;6.40;1.00
827;DHT22;395;48.132;11.608;2023-02-03T06:03:44;6.40;1.00
827;DHT22;395;48.132;11.608;2023-02-03T06:06:10;6.30;1.00
827;DHT22;395;48.132;11.608;2023-02-03T06:08:35;6.40;1.00
827;DHT22;395;48.132;11.608;2023-02-03T06:11:01;6.30;1.00
827;DHT22;395;48.132;11.608;2023-02-03T06:13:27;6.30;1.00
827;DHT22;395;48.132;11.608;2023-02-03T06:15:53;6.40;1.00
827;DHT22;395;48.132;11.608;2023-02-03T06:18:19;6.50;1.00
827;DHT22;395;48.132;11.608;2023-02-03T06:20:44;6.40;1.00
827;DHT22;395;48.132;11.608;2023-02-03T06:23:10;6.40;1.00
827;DHT22;395;48.132;11.608;2023-02-03T06:25:36;6.40;1.00
827;DHT22;395;48.132;11.608;2023-02-03T06:28:01;6.50;1.00
827;DHT22;395;48.132;11.608;2023-02-03T06:30:27;6.50;1.00
827;DHT22;395;48.132;11.608;2023-02-03T06:32:53;6.50;1.00
827;DHT22;395;48.132;11.608;2023-02-03T06:35:19;6.50;1.00
827;DHT22;395;48.132;11.608;2023-02-03T06:37:45;6.50;1.00
827;DHT22;395;48.132;11.608;2023-02-03T06:40:11;6.40;1.00
827;DHT22;395;48.132;11.608;2023-02-03T06:42:37;6.40;1.00
827;DHT22;395;48.132;11.608;2023-02-03T06:45:03;6.40;1.00
827;DHT22;395;48.132;11.608;2023-02-03T06:47:29;6.40;1.00
827;DHT22;395;48.132;11.608;2023-02-03T06:49:55;6.30;1.00
827;DHT22;395;48.132;11.608;2023-02-03T06:52:20;6.40;1.00
827;DHT22;395;48.132;11.608;2023-02-03T06:54:46;6.40;1.00
827;DHT22;395;48.132;11.608;2023-02-03T06:57:12;6.40;1.00
827;DHT22;395;48.132;11.608;2023-02-03T06:59:38;6.50;1.00
827;DHT22;395;48.132;11.608;2023-02-03T07:02:04;6.50;1.00
827;DHT22;395;48.132;11.608;2023-02-03T07:04:29;6.40;1.00
827;DHT22;395;48.132;11.608;2023-02-03T07:06:56;6.50;1.00
827;DHT22;395;48.132;11.608;2023-02-03T07:09:22;6.50;1.00
827;DHT22;395;48.132;11.608;2023-02-03T07:11:48;6.50;1.00
827;DHT22;395;48.132;11.608;2023-02-03T07:14:14;6.50;1.00
827;DHT22;395;48.132;11.608;2023-02-03T07:16:39;6.50;1.00
827;DHT22;395;48.132;11.608;2023-02-03T07:19:05;6.60;1.00
827;DHT22;395;48.132;11.608;2023-02-03T07:21:31;6.60;1.00
827;DHT22;395;48.132;11.608;2023-02-03T07:23:56;6.60;1.00
827;DHT22;395;48.132;11.608;2023-02-03T07:26:22;6.60;1.00
827;DHT22;395;48.132;11.608;2023-02-03T07:28:49;6.60;1.00
827;DHT22;395;48.132;11.608;2023-02-03T07:31:16;6.60;1.00
827;DHT22;395;48.132;11.608;2023-02-03T07:33:42;6.70;1.00
827;DHT22;395;48.132;11.608;2023-02-03T07:36:09;6.70;1.00
827;DHT22;395;48.132;11.608;2023-02-03T07:38:35;6.70;1.00
827;DHT22;395;48.132;11.608;2023-02-03T07:41:05;6.60;1.00
827;DHT22;395;48.132;11.608;2023-02-03T07:43:31;6.70;1.00
827;DHT22;395;48.132;11.608;2023-02-03T07:45:56;6.70;1.00
827;DHT22;395;48.132;11.608;2023-02-03T07:48:22;6.70;1.00
827;DHT22;395;48.132;11.608;2023-02-03T07:50:48;6.80;1.00
827;DHT22;395;48.132;11.608;2023-02-03T07:53:15;6.60;1.00
827;DHT22;395;48.132;11.608;2023-02-03T07:55:41;6.70;1.00
827;DHT22;395;48.132;11.608;2023-02-03T07:58:06;6.70;1.00
827;DHT22;395;48.132;11.608;2023-02-03T08:00:32;6.70;1.00
827;DHT22;395;48.132;11.608;2023-02-03T08:02:58;6.70;1.00
827;DHT22;395;48.132;11.608;2023-02-03T08:05:24;6.70;1.00
827;DHT22;395;48.132;11.608;2023-02-03T08:07:50;6.70;1.00
827;DHT22;395;48.132;11.608;2023-02-03T08:10:16;6.70;1.00
827;DHT22;395;48.132;11.608;2023-02-03T08:12:42;6.70;1.00
827;DHT22;395;48.132;11.608;2023-02-03T08:15:09;6.70;1.00
827;DHT22;395;48.132;11.608;2023-02-03T08:17:35;6.70;1.00
827;DHT22;395;48.132;11.608;2023-02-03T08:20:01;6.70;1.00
827;DHT22;395;48.132;11.608;2023-02-03T08:22:26;6.80;1.00
827;DHT22;395;48.132;11.608;2023-02-03T08:24:52;6.90;1.00
827;DHT22;395;48.132;11.608;2023-02-03T08:27:20;6.90;1.00
827;DHT22;395;48.132;11.608;2023-02-03T08:29:47;6.80;1.00
827;DHT22;395;48.132;11.608;2023-02-03T08:32:18;6.80;1.00
827;DHT22;395;48.132;11.608;2023-02-03T08:34:44;6.90;1.00
827;DHT22;395;48.132;11.608;2023-02-03T08:37:11;6.90;1.00
827;DHT22;395;48.132;11.608;2023-02-03T08:39:38;6.90;1.00
827;DHT22;395;48.132;11.608;2023-02-03T08:42:04;6.80;1.00
827;DHT22;395;48.132;11.608;2023-02-03T08:44:30;6.80;1.00
827;DHT22;395;48.132;11.608;2023-02-03T08:46:57;6.90;1.00
827;DHT22;395;48.132;11.608;2023-02-03T08:49:25;6.90;1.00
827;DHT22;395;48.132;11.608;2023-02-03T08:51:51;6.90;1.00
827;DHT22;395;48.132;11.608;2023-02-03T08:54:18;6.90;1.00
827;DHT22;395;48.132;11.608;2023-02-03T08:56:44;6.90;1.00
827;DHT22;395;48.132;11.608;2023-02-03T08:59:11;6.90;1.00
827;DHT22;395;48.132;11.608;2023-02-03T09:01:37;6.90;1.00
827;DHT22;395;48.132;11.608;2023-02-03T09:04:05;6.90;1.00
827;DHT22;395;48.132;11.608;2023-02-03T09:06:33;6.90;1.00
827;DHT22;395;48.132;11.608;2023-02-03T09:08:59;7.00;1.00
827;DHT22;395;48.132;11.608;2023-02-03T09:11:25;6.90;1.00
827;DHT22;395;48.132;11.608;2023-02-03T09:13:51;7.00;1.00
827;DHT22;395;48.132;11.608;2023-02-03T09:16:18;7.00;1.00
827;DHT22;395;48.132;11.608;2023-02-03T09:18:46;7.10;1.00
827;DHT22;395;48.132;11.608;2023-02-03T09:21:12;7.10;1.00
827;DHT22;395;48.132;11.608;2023-02-03T09:23:39;7.10;1.00
827;DHT22;395;48.132;11.608;2023-02-03T09:26:07;7.20;1.00
827;DHT22;395;48.132;11.608;2023-02-03T09:28:33;7.20;1.00
827;DHT22;395;48.132;11.608;2023-02-03T09:31:04;7.20;1.00
827;DHT22;395;48.132;11.608;2023-02-03T09:33:30;7.20;1.00
827;DHT22;395;48.132;11.608;2023-02-03T09:35:57;7.10;1.00
827;DHT22;395;48.132;11.608;2023-02-03T09:38:23;7.20;1.00
827;DHT22;395;48.132;11.608;2023-02-03T09:40:53;7.20;1.00
827;DHT22;395;48.132;11.608;2023-02-03T09:43:40;7.20;1.00
827;DHT22;395;48.132;11.608;2023-02-03T09:46:25;7.20;1.00
827;DHT22;395;48.132;11.608;2023-02-03T09:49:07;7.30;1.00
827;DHT22;395;48.132;11.608;2023-02-03T09:57:36;7.30;1.00
827;DHT22;395;48.132;11.608;2023-02-03T10:00:16;7.30;1.00
827;DHT22;395;48.132;11.608;2023-02-03T10:03:04;7.40;1.00
827;DHT22;395;48.132;11.608;2023-02-03T10:17:14;7.40;1.00
827;DHT22;395;48.132;11.608;2023-02-03T10:19:47;7.40;1.00
827;DHT22;395;48.132;11.608;2023-02-03T10:22:19;7.40;1.00
827;DHT22;395;48.132;11.608;2023-02-03T10:27:40;7.40;1.00
827;DHT22;395;48.132;11.608;2023-02-03T10:32:49;7.30;1.00
827;DHT22;395;48.132;11.608;2023-02-03T10:35:17;7.40;1.00
827;DHT22;395;48.132;11.608;2023-02-03T10:37:49;7.50;1.00
827;DHT22;395;48.132;11.608;2023-02-03T10:40:16;7.50;1.00
827;DHT22;395;48.132;11.608;2023-02-03T10:42:46;7.50;1.00
827;DHT22;395;48.132;11.608;2023-02-03T10:45:33;7.50;1.00
827;DHT22;395;48.132;11.608;2023-02-03T10:48:02;7.50;1.00
827;DHT22;395;48.132;11.608;2023-02-03T10:50:28;7.50;1.00
827;DHT22;395;48.132;11.608;2023-02-03T10:56:10;7.60;1.00
827;DHT22;395;48.132;11.608;2023-02-03T10:58:37;7.60;1.00
827;DHT22;395;48.132;11.608;2023-02-03T11:03:32;7.60;1.00
827;DHT22;395;48.132;11.608;2023-02-03T11:06:13;7.60;1.00
827;DHT22;395;48.132;11.608;2023-02-03T11:08:42;7.60;1.00
827;DHT22;395;48.132;11.608;2023-02-03T11:11:59;7.50;1.00
827;DHT22;395;48.132;11.608;2023-02-03T11:14:15;7.50;1.00
827;DHT22;395;48.132;11.608;2023-02-03T11:16:42;7.50;1.00
827;DHT22;395;48.132;11.608;2023-02-03T11:19:21;7.60;1.00
827;DHT22;395;48.132;11.608;2023-02-03T11:21:50;7.70;1.00
827;DHT22;395;48.132;11.608;2023-02-03T11:24:35;7.60;1.00
827;DHT22;395;48.132;11.608;2023-02-03T11:27:03;7.60;1.00
827;DHT22;395;48.132;11.608;2023-02-03T11:29:36;7.70;1.00
827;DHT22;395;48.132;11.608;2023-02-03T11:32:12;7.70;1.00
827;DHT22;395;48.132;11.608;2023-02-03T11:34:46;7.70;1.00
827;DHT22;395;48.132;11.608;2023-02-03T11:37:28;7.80;1.00
827;DHT22;395;48.132;11.608;2023-02-03T11:42:38;7.80;1.00
827;DHT22;395;48.132;11.608;2023-02-03T11:53:24;7.80;1.00
827;DHT22;395;48.132;11.608;2023-02-03T12:01:43;7.90;1.00
827;DHT22;395;48.132;11.608;2023-02-03T12:18:50;8.00;1.00
827;DHT22;395;48.132;11.608;2023-02-03T12:21:40;8.00;1.00
827;DHT22;395;48.132;11.608;2023-02-03T12:29:45;8.00;1.00
827;DHT22;395;48.132;11.608;2023-02-03T12:32:37;8.00;1.00
827;DHT22;395;48.132;11.608;2023-02-03T12:35:17;8.00;1.00
827;DHT22;395;48.132;11.608;2023-02-03T12:40:35;8.10;1.00
827;DHT22;395;48.132;11.608;2023-02-03T12:43:16;8.00;1.00
827;DHT22;395;48.132;11.608;2023-02-03T12:45:54;8.00;1.00
827;DHT22;395;48.132;11.608;2023-02-03T12:48:25;7.90;1.00
827;DHT22;395;48.132;11.608;2023-02-03T12:50:59;8.00;1.00
827;DHT22;395;48.132;11.608;2023-02-03T12:53:32;8.10;1.00
827;DHT22;395;48.132;11.608;2023-02-03T12:56:12;8.00;1.00
827;DHT22;395;48.132;11.608;2023-02-03T13:01:34;8.10;1.00
827;DHT22;395;48.132;11.608;2023-02-03T13:09:30;8.10;1.00
827;DHT22;395;48.132;11.608;2023-02-03T13:12:12;8.10;1.00
827;DHT22;395;48.132;11.608;2023-02-03T13:15:18;8.20;1.00
827;DHT22;395;48.132;11.608;2023-02-03T13:17:49;8.10;1.00
827;DHT22;395;48.132;11.608;2023-02-03T13:20:25;8.00;1.00
827;DHT22;395;48.132;11.608;2023-02-03T13:22:53;7.90;1.00
827;DHT22;395;48.132;11.608;2023-02-03T13:30:31;8.00;1.00
827;DHT22;395;48.132;11.608;2023-02-03T13:41:52;7.90;1.00
827;DHT22;395;48.132;11.608;2023-02-03T13:44:22;8.00;1.00
827;DHT22;395;48.132;11.608;2023-02-03T13:46:51;8.00;1.00
827;DHT22;395;48.132;11.608;2023-02-03T13:49:27;8.00;1.00
827;DHT22;395;48.132;11.608;2023-02-03T13:51:55;8.00;1.00
827;DHT22;395;48.132;11.608;2023-02-03T13:54:29;7.90;1.00
827;DHT22;395;48.132;11.608;2023-02-03T13:56:58;8.00;1.00
827;DHT22;395;48.132;11.608;2023-02-03T14:07:33;7.90;1.00
827;DHT22;395;48.132;11.608;2023-02-03T14:10:20;7.80;1.00
827;DHT22;395;48.132;11.608;2023-02-03T14:18:02;7.80;1.00
827;DHT22;395;48.132;11.608;2023-02-03T14:23:07;7.80;1.00
827;DHT22;395;48.132;11.608;2023-02-03T14:25:47;7.80;1.00
827;DHT22;395;48.132;11.608;2023-02-03T14:28:17;7.80;1.00
827;DHT22;395;48.132;11.608;2023-02-03T14:31:08;7.90;1.00
827;DHT22;395;48.132;11.608;2023-02-03T14:34:05;7.90;1.00
827;DHT22;395;48.132;11.608;2023-02-03T14:40:08;7.80;1.00
827;DHT22;395;48.132;11.608;2023-02-03T14:59:23;7.80;1.00
827;DHT22;395;48.132;11.608;2023-02-03T15:06:47;8.00;1.00
827;DHT22;395;48.132;11.608;2023-02-03T15:09:30;7.90;1.00
827;DHT22;395;48.132;11.608;2023-02-03T15:11:57;7.90;1.00
827;DHT22;395;48.132;11.608;2023-02-03T15:14:27;7.90;1.00
827;DHT22;395;48.132;11.608;2023-02-03T15:17:09;7.90;1.00
827;DHT22;395;48.132;11.608;2023-02-03T15:19:39;7.90;1.00
827;DHT22;395;48.132;11.608;2023-02-03T15:24:43;7.80;1.00
827;DHT22;395;48.132;11.608;2023-02-03T15:27:23;7.70;1.00
827;DHT22;395;48.132;11.608;2023-02-03T15:29:50;7.70;1.00
827;DHT22;395;48.132;11.608;2023-02-03T15:32:22;7.70;1.00
827;DHT22;395;48.132;11.608;2023-02-03T15:34:50;7.80;1.00
827;DHT22;395;48.132;11.608;2023-02-03T15:37:21;7.80;1.00
827;DHT22;395;48.132;11.608;2023-02-03T15:42:37;7.80;1.00
827;DHT22;395;48.132;11.608;2023-02-03T15:47:44;7.70;1.00
827;DHT22;395;48.132;11.608;2023-02-03T15:53:15;7.70;1.00
827;DHT22;395;48.132;11.608;2023-02-03T15:55:45;7.70;1.00
827;DHT22;395;48.132;11.608;2023-02-03T15:58:16;7.60;1.00
827;DHT22;395;48.132;11.608;2023-02-03T16:00:48;7.60;1.00
827;DHT22;395;48.132;11.608;2023-02-03T16:03:21;7.60;1.00
827;DHT22;395;48.132;11.608;2023-02-03T16:05:52;7.60;1.00
827;DHT22;395;48.132;11.608;2023-02-03T16:08:57;7.70;1.00
827;DHT22;395;48.132;11.608;2023-02-03T16:11:37;7.60;1.00
827;DHT22;395;48.132;11.608;2023-02-03T16:14:10;7.70;1.00
827;DHT22;395;48.132;11.608;2023-02-03T16:16:48;7.70;1.00
827;DHT22;395;48.132;11.608;2023-02-03T16:19:22;7.60;1.00
827;DHT22;395;48.132;11.608;2023-02-03T16:24:39;7.80;1.00
827;DHT22;395;48.132;11.608;2023-02-03T16:29:51;7.60;1.00
827;DHT22;395;48.132;11.608;2023-02-03T16:32:36;7.60;1.00
827;DHT22;395;48.132;11.608;2023-02-03T16:35:20;7.50;1.00
827;DHT22;395;48.132;11.608;2023-02-03T16:38:14;7.40;1.00
827;DHT22;395;48.132;11.608;2023-02-03T16:40:59;7.50;1.00
827;DHT22;395;48.132;11.608;2023-02-03T16:43:43;7.40;1.00
827;DHT22;395;48.132;11.608;2023-02-03T16:46:27;7.50;1.00
827;DHT22;395;48.132;11.608;2023-02-03T16:49:11;7.40;1.00
827;DHT22;395;48.132;11.608;2023-02-03T16:51:56;7.50;1.00
827;DHT22;395;48.132;11.608;2023-02-03T16:54:21;7.50;1.00
827;DHT22;395;48.132;11.608;2023-02-03T16:56:47;7.30;1.00
827;DHT22;395;48.132;11.608;2023-02-03T16:59:13;7.40;1.00
827;DHT22;395;48.132;11.608;2023-02-03T17:01:40;7.50;1.00
827;DHT22;395;48.132;11.608;2023-02-03T17:04:06;7.50;1.00
827;DHT22;395;48.132;11.608;2023-02-03T17:06:35;7.50;1.00
827;DHT22;395;48.132;11.608;2023-02-03T17:09:01;7.50;1.00
827;DHT22;395;48.132;11.608;2023-02-03T17:11:26;7.50;1.00
827;DHT22;395;48.132;11.608;2023-02-03T17:13:52;7.50;1.00
827;DHT22;395;48.132;11.608;2023-02-03T17:16:21;7.60;1.00
827;DHT22;395;48.132;11.608;2023-02-03T17:18:47;7.60;1.00
827;DHT22;395;48.132;11.608;2023-02-03T17:21:22;7.50;1.00
827;DHT22;395;48.132;11.608;2023-02-03T17:23:49;7.50;1.00
827;DHT22;395;48.132;11.608;2023-02-03T17:26:15;7.50;1.00
827;DHT22;395;48.132;11.608;2023-02-03T17:28:41;7.40;1.00
827;DHT22;395;48.132;11.608;2023-02-03T17:31:12;7.40;1.00
827;DHT22;395;48.132;11.608;2023-02-03T17:33:38;7.40;1.00
827;DHT22;395;48.132;11.608;2023-02-03T17:36:07;7.40;1.00
827;DHT22;395;48.132;11.608;2023-02-03T17:38:45;7.30;1.00
827;DHT22;395;48.132;11.608;2023-02-03T17:41:19;7.30;1.00
827;DHT22;395;48.132;11.608;2023-02-03T17:43:46;7.30;1.00
827;DHT22;395;48.132;11.608;2023-02-03T17:46:14;7.40;1.00
827;DHT22;395;48.132;11.608;2023-02-03T17:48:40;7.40;1.00
827;DHT22;395;48.132;11.608;2023-02-03T17:51:07;7.30;1.00
827;DHT22;395;48.132;11.608;2023-02-03T17:53:33;7.40;1.00
827;DHT22;395;48.132;11.608;2023-02-03T17:56:12;7.40;1.00
827;DHT22;395;48.132;11.608;2023-02-03T17:58:39;7.40;1.00
827;DHT22;395;48.132;11.608;2023-02-03T18:01:14;7.40;1.00
827;DHT22;395;48.132;11.608;2023-02-03T18:03:51;7.40;1.00
827;DHT22;395;48.132;11.608;2023-02-03T18:06:19;7.40;1.00
827;DHT22;395;48.132;11.608;2023-02-03T18:08:46;7.30;1.00
827;DHT22;395;48.132;11.608;2023-02-03T18:11:13;7.30;1.00
827;DHT22;395;48.132;11.608;2023-02-03T18:13:42;7.30;1.00
827;DHT22;395;48.132;11.608;2023-02-03T18:16:11;7.30;1.00
827;DHT22;395;48.132;11.608;2023-02-03T18:18:37;7.20;1.00
827;DHT22;395;48.132;11.608;2023-02-03T18:21:07;7.30;1.00
827;DHT22;395;48.132;11.608;2023-02-03T18:23:36;7.20;1.00
827;DHT22;395;48.132;11.608;2023-02-03T18:26:02;7.20;1.00
827;DHT22;395;48.132;11.608;2023-02-03T18:28:28;7.20;1.00
827;DHT22;395;48.132;11.608;2023-02-03T18:31:09;7.30;1.00
827;DHT22;395;48.132;11.608;2023-02-03T18:33:36;7.20;1.00
827;DHT22;395;48.132;11.608;2023-02-03T18:36:03;7.30;1.00
827;DHT22;395;48.132;11.608;2023-02-03T18:38:30;7.20;1.00
827;DHT22;395;48.132;11.608;2023-02-03T18:40:58;7.20;1.10
827;DHT22;395;48.132;11.608;2023-02-03T18:43:28;7.20;1.30
827;DHT22;395;48.132;11.608;2023-02-03T18:45:53;7.20;1.50
827;DHT22;395;48.132;11.608;2023-02-03T18:48:19;7.20;1.50
827;DHT22;395;48.132;11.608;2023-02-03T18:50:45;7.20;1.80
827;DHT22;395;48.132;11.608;2023-02-03T18:53:11;7.30;1.50
827;DHT22;395;48.132;11.608;2023-02-03T18:55:41;7.30;1.80
827;DHT22;395;48.132;11.608;2023-02-03T18:58:07;7.20;1.50
827;DHT22;395;48.132;11.608;2023-02-03T19:00:33;7.20;1.60
827;DHT22;395;48.132;11.608;2023-02-03T19:02:58;7.20;1.70
827;DHT22;395;48.132;11.608;2023-02-03T19:05:24;7.20;2.40
827;DHT22;395;48.132;11.608;2023-02-03T19:07:50;7.10;3.80
827;DHT22;395;48.132;11.608;2023-02-03T19:10:16;7.20;4.40
827;DHT22;395;48.132;11.608;2023-02-03T19:12:42;7.10;5.60
827;DHT22;395;48.132;11.608;2023-02-03T19:15:09;7.00;6.20
827;DHT22;395;48.132;11.608;2023-02-03T19:17:35;7.00;6.20
827;DHT22;395;48.132;11.608;2023-02-03T19:20:01;7.00;6.50
827;DHT22;395;48.132;11.608;2023-02-03T19:22:31;7.00;7.10
827;DHT22;395;48.132;11.608;2023-02-03T19:24:57;7.00;7.80
827;DHT22;395;48.132;11.608;2023-02-03T19:27:23;7.00;7.40
827;DHT22;395;48.132;11.608;2023-02-03T19:29:49;6.90;8.00
827;DHT22;395;48.132;11.608;2023-02-03T19:32:15;6.90;8.40
827;DHT22;395;48.132;11.608;2023-02-03T19:34:41;6.90;9.00
827;DHT22;395;48.132;11.608;2023-02-03T19:37:07;6.90;9.30
827;DHT22;395;48.132;11.608;2023-02-03T19:39:33;6.80;9.70
827;DHT22;395;48.132;11.608;2023-02-03T19:41:59;6.90;9.70
827;DHT22;395;48.132;11.608;2023-02-03T19:44:25;7.20;10.90
827;DHT22;395;48.132;11.608;2023-02-03T19:46:51;6.90;11.00
827;DHT22;395;48.132;11.608;2023-02-03T19:49:16;6.90;10.80
827;DHT22;395;48.132;11.608;2023-02-03T19:51:43;6.80;11.00
827;DHT22;395;48.132;11.608;2023-02-03T19:54:14;6.90;11.80
827;DHT22;395;48.132;11.608;2023-02-03T19:56:41;6.80;11.80
827;DHT22;395;48.132;11.608;2023-02-03T19:59:07;6.70;11.70
827;DHT22;395;48.132;11.608;2023-02-03T20:01:33;6.80;12.20
827;DHT22;395;48.132;11.608;2023-02-03T20:03:59;6.80;11.40
827;DHT22;395;48.132;11.608;2023-02-03T20:06:26;6.80;12.30
827;DHT22;395;48.132;11.608;2023-02-03T20:08:53;6.80;12.50
827;DHT22;395;48.132;11.608;2023-02-03T20:11:21;6.80;12.60
827;DHT22;395;48.132;11.608;2023-02-03T20:13:47;6.70;12.00